sensor_id;sensor_type;location;lat;lon;timestamp;P1;durP1;ratioP1;P2;durP2;ratioP2
13985;SDS011;7067;51.832;8.296;2022-07-23T00:00:28;10.38;;;8.57;;
13985;SDS011;7067;51.832;8.296;2022-07-23T00:02:54;11.32;;;8.93;;
13985;SDS011;7067;51.832;8.296;2022-07-23T00:05:19;9.63;;;7.97;;
13985;SDS011;7067;51.832;8.296;2022-07-23T00:07:44;9.02;;;7.95;;
13985;SDS011;7067;51.832;8.296;2022-07-23T00:10:10;9.63;;;8.63;;
13985;SDS011;7067;51.832;8.296;2022-07-23T00:12:35;9.38;;;8.48;;
13985;SDS011;7067;51.832;8.296;2022-07-23T00:15:03;11.35;;;8.98;;
13985;SDS011;7067;51.832;8.296;2022-07-23T00:17:29;10.65;;;9.68;;
13985;SDS011;7067;51.832;8.296;2022-07-23T00:19:54;11.02;;;9.18;;
13985;SDS011;7067;51.832;8.296;2022-07-23T00:22:20;10.45;;;8.73;;
13985;SDS011;7067;51.832;8.296;2022-07-23T00:24:45;11.38;;;8.93;;
13985;SDS011;7067;51.832;8.296;2022-07-23T00:27:11;9.60;;;7.88;;
13985;SDS011;7067;51.832;8.296;2022-07-23T00:29:36;11.75;;;9.35;;
13985;SDS011;7067;51.832;8.296;2022-07-23T00:32:02;13.50;;;8.73;;
13985;SDS011;7067;51.832;8.296;2022-07-23T00:34:27;11.38;;;9.07;;
13985;SDS011;7067;51.832;8.296;2022-07-23T00:36:52;10.57;;;9.00;;
13985;SDS011;7067;51.832;8.296;2022-07-23T00:39:19;11.40;;;10.18;;
13985;SDS011;7067;51.832;8.296;2022-07-23T00:41:46;12.05;;;10.95;;
13985;SDS011;7067;51.832;8.296;2022-07-23T00:44:15;11.00;;;9.30;;
13985;SDS011;7067;51.832;8.296;2022-07-23T00:46:47;10.73;;;9.52;;
13985;SDS011;7067;51.832;8.296;2022-07-23T00:49:13;10.68;;;9.60;;
13985;SDS011;7067;51.832;8.296;2022-07-23T00:51:39;13.57;;;10.45;;
13985;SDS011;7067;51.832;8.296;2022-07-23T00:54:04;15.13;;;10.80;;
13985;SDS011;7067;51.832;8.296;2022-07-23T00:56:30;16.48;;;10.65;;
13985;SDS011;7067;51.832;8.296;2022-07-23T00:58:55;13.35;;;10.10;;
13985;SDS011;7067;51.832;8.296;2022-07-23T01:01:22;10.85;;;9.82;;
13985;SDS011;7067;51.832;8.296;2022-07-23T01:03:47;12.02;;;10.82;;
13985;SDS011;7067;51.832;8.296;2022-07-23T01:06:12;12.70;;;11.43;;
13985;SDS011;7067;51.832;8.296;2022-07-23T01:08:38;12.65;;;11.40;;
13985;SDS011;7067;51.832;8.296;2022-07-23T01:11:04;15.02;;;12.00;;
13985;SDS011;7067;51.832;8.296;2022-07-23T01:13:29;12.52;;;10.93;;
13985;SDS011;7067;51.832;8.296;2022-07-23T01:15:55;17.33;;;11.35;;
13985;SDS011;7067;51.832;8.296;2022-07-23T01:18:20;11.98;;;10.85;;
13985;SDS011;7067;51.832;8.296;2022-07-23T01:20:45;13.30;;;11.52;;
13985;SDS011;7067;51.832;8.296;2022-07-23T01:23:11;12.65;;;11.40;;
13985;SDS011;7067;51.832;8.296;2022-07-23T01:25:36;21.52;;;13.23;;
13985;SDS011;7067;51.832;8.296;2022-07-23T01:28:01;19.48;;;12.85;;
13985;SDS011;7067;51.832;8.296;2022-07-23T01:30:27;13.85;;;12.50;;
13985;SDS011;7067;51.832;8.296;2022-07-23T01:32:52;20.15;;;13.82;;
13985;SDS011;7067;51.832;8.296;2022-07-23T01:35:17;14.27;;;13.00;;
13985;SDS011;7067;51.832;8.296;2022-07-23T01:37:43;16.63;;;13.60;;
13985;SDS011;7067;51.832;8.296;2022-07-23T01:40:08;14.90;;;13.30;;
13985;SDS011;7067;51.832;8.296;2022-07-23T01:42:34;18.25;;;12.32;;
13985;SDS011;7067;51.832;8.296;2022-07-23T01:44:59;15.48;;;13.07;;
13985;SDS011;7067;51.832;8.296;2022-07-23T01:47:25;13.15;;;11.60;;
13985;SDS011;7067;51.832;8.296;2022-07-23T01:49:50;14.55;;;13.00;;
13985;SDS011;7067;51.832;8.296;2022-07-23T01:52:16;16.15;;;14.15;;
13985;SDS011;7067;51.832;8.296;2022-07-23T01:54:41;15.40;;;13.98;;
13985;SDS011;7067;51.832;8.296;2022-07-23T01:57:07;17.15;;;13.75;;
13985;SDS011;7067;51.832;8.296;2022-07-23T01:59:33;19.38;;;14.18;;
13985;SDS011;7067;51.832;8.296;2022-07-23T02:01:59;16.30;;;14.07;;
13985;SDS011;7067;51.832;8.296;2022-07-23T02:04:24;15.93;;;14.18;;
13985;SDS011;7067;51.832;8.296;2022-07-23T02:06:50;15.27;;;13.60;;
13985;SDS011;7067;51.832;8.296;2022-07-23T02:09:16;17.83;;;15.13;;
13985;SDS011;7067;51.832;8.296;2022-07-23T02:11:42;18.67;;;14.63;;
13985;SDS011;7067;51.832;8.296;2022-07-23T02:14:07;15.82;;;13.82;;
13985;SDS011;7067;51.832;8.296;2022-07-23T02:16:32;22.27;;;15.18;;
13985;SDS011;7067;51.832;8.296;2022-07-23T02:18:58;15.85;;;14.38;;
13985;SDS011;7067;51.832;8.296;2022-07-23T02:21:23;15.95;;;14.45;;
13985;SDS011;7067;51.832;8.296;2022-07-23T02:23:49;18.30;;;16.52;;
13985;SDS011;7067;51.832;8.296;2022-07-23T02:26:14;17.40;;;15.45;;
13985;SDS011;7067;51.832;8.296;2022-07-23T02:28:39;16.63;;;14.95;;
13985;SDS011;7067;51.832;8.296;2022-07-23T02:31:05;17.63;;;15.75;;
13985;SDS011;7067;51.832;8.296;2022-07-23T02:33:31;18.35;;;16.10;;
13985;SDS011;7067;51.832;8.296;2022-07-23T02:35:57;23.27;;;16.38;;
13985;SDS011;7067;51.832;8.296;2022-07-23T02:38:22;23.58;;;16.15;;
13985;SDS011;7067;51.832;8.296;2022-07-23T02:40:47;17.60;;;15.60;;
13985;SDS011;7067;51.832;8.296;2022-07-23T02:43:13;16.17;;;14.55;;
13985;SDS011;7067;51.832;8.296;2022-07-23T02:45:38;21.38;;;15.25;;
13985;SDS011;7067;51.832;8.296;2022-07-23T02:48:03;17.27;;;15.48;;
13985;SDS011;7067;51.832;8.296;2022-07-23T02:50:29;16.45;;;15.05;;
13985;SDS011;7067;51.832;8.296;2022-07-23T02:52:54;16.52;;;14.90;;
13985;SDS011;7067;51.832;8.296;2022-07-23T02:55:20;17.45;;;14.25;;
13985;SDS011;7067;51.832;8.296;2022-07-23T02:57:45;18.33;;;15.50;;
13985;SDS011;7067;51.832;8.296;2022-07-23T03:00:10;21.00;;;15.80;;
13985;SDS011;7067;51.832;8.296;2022-07-23T03:02:36;16.23;;;14.52;;
13985;SDS011;7067;51.832;8.296;2022-07-23T03:05:01;17.75;;;13.60;;
13985;SDS011;7067;51.832;8.296;2022-07-23T03:07:27;24.13;;;14.40;;
13985;SDS011;7067;51.832;8.296;2022-07-23T03:09:52;16.88;;;14.10;;
13985;SDS011;7067;51.832;8.296;2022-07-23T03:12:18;15.10;;;13.70;;
13985;SDS011;7067;51.832;8.296;2022-07-23T03:14:43;19.60;;;14.55;;
13985;SDS011;7067;51.832;8.296;2022-07-23T03:17:09;17.15;;;15.02;;
13985;SDS011;7067;51.832;8.296;2022-07-23T03:19:34;17.98;;;13.88;;
13985;SDS011;7067;51.832;8.296;2022-07-23T03:22:00;16.02;;;14.45;;
13985;SDS011;7067;51.832;8.296;2022-07-23T03:24:25;17.05;;;15.00;;
13985;SDS011;7067;51.832;8.296;2022-07-23T03:27:10;16.88;;;14.98;;
13985;SDS011;7067;51.832;8.296;2022-07-23T03:29:36;16.55;;;14.90;;
13985;SDS011;7067;51.832;8.296;2022-07-23T03:32:02;16.20;;;14.68;;
13985;SDS011;7067;51.832;8.296;2022-07-23T03:34:28;18.00;;;15.82;;
13985;SDS011;7067;51.832;8.296;2022-07-23T03:36:53;17.08;;;15.32;;
13985;SDS011;7067;51.832;8.296;2022-07-23T03:39:19;18.05;;;16.25;;
13985;SDS011;7067;51.832;8.296;2022-07-23T03:41:44;22.30;;;17.08;;
13985;SDS011;7067;51.832;8.296;2022-07-23T03:44:09;18.85;;;16.75;;
13985;SDS011;7067;51.832;8.296;2022-07-23T03:46:35;20.45;;;17.63;;
13985;SDS011;7067;51.832;8.296;2022-07-23T03:49:00;18.73;;;16.90;;
13985;SDS011;7067;51.832;8.296;2022-07-23T03:51:25;20.85;;;16.55;;
13985;SDS011;7067;51.832;8.296;2022-07-23T03:53:51;18.90;;;17.08;;
13985;SDS011;7067;51.832;8.296;2022-07-23T03:56:16;20.25;;;16.73;;
13985;SDS011;7067;51.832;8.296;2022-07-23T03:58:41;20.95;;;16.10;;
13985;SDS011;7067;51.832;8.296;2022-07-23T04:01:07;18.77;;;17.08;;
13985;SDS011;7067;51.832;8.296;2022-07-23T04:03:32;19.88;;;16.50;;
13985;SDS011;7067;51.832;8.296;2022-07-23T04:05:57;18.00;;;16.13;;
13985;SDS011;7067;51.832;8.296;2022-07-23T04:08:23;18.67;;;16.77;;
13985;SDS011;7067;51.832;8.296;2022-07-23T04:10:48;17.75;;;16.05;;
13985;SDS011;7067;51.832;8.296;2022-07-23T04:13:13;17.85;;;16.15;;
13985;SDS011;7067;51.832;8.296;2022-07-23T04:15:39;18.08;;;16.25;;
13985;SDS011;7067;51.832;8.296;2022-07-23T04:18:04;17.48;;;15.85;;
13985;SDS011;7067;51.832;8.296;2022-07-23T04:20:30;17.92;;;16.05;;
13985;SDS011;7067;51.832;8.296;2022-07-23T04:22:55;17.63;;;15.95;;
13985;SDS011;7067;51.832;8.296;2022-07-23T04:25:21;18.00;;;16.40;;
13985;SDS011;7067;51.832;8.296;2022-07-23T04:27:46;18.67;;;16.70;;
13985;SDS011;7067;51.832;8.296;2022-07-23T04:30:12;16.17;;;14.60;;
13985;SDS011;7067;51.832;8.296;2022-07-23T04:32:37;18.58;;;15.65;;
13985;SDS011;7067;51.832;8.296;2022-07-23T04:35:02;19.70;;;15.80;;
13985;SDS011;7067;51.832;8.296;2022-07-23T04:37:28;17.50;;;15.98;;
13985;SDS011;7067;51.832;8.296;2022-07-23T04:39:56;21.65;;;15.63;;
13985;SDS011;7067;51.832;8.296;2022-07-23T04:42:22;17.63;;;15.60;;
13985;SDS011;7067;51.832;8.296;2022-07-23T04:44:47;17.25;;;15.45;;
13985;SDS011;7067;51.832;8.296;2022-07-23T04:47:12;16.50;;;15.10;;
13985;SDS011;7067;51.832;8.296;2022-07-23T04:49:38;16.70;;;15.00;;
13985;SDS011;7067;51.832;8.296;2022-07-23T04:52:03;20.27;;;15.30;;
13985;SDS011;7067;51.832;8.296;2022-07-23T04:54:29;17.25;;;15.55;;
13985;SDS011;7067;51.832;8.296;2022-07-23T04:56:54;16.80;;;15.18;;
13985;SDS011;7067;51.832;8.296;2022-07-23T04:59:19;18.48;;;15.35;;
13985;SDS011;7067;51.832;8.296;2022-07-23T05:01:45;16.55;;;14.77;;
13985;SDS011;7067;51.832;8.296;2022-07-23T05:04:10;18.73;;;16.77;;
13985;SDS011;7067;51.832;8.296;2022-07-23T05:06:36;16.10;;;14.35;;
13985;SDS011;7067;51.832;8.296;2022-07-23T05:09:01;17.45;;;15.63;;
13985;SDS011;7067;51.832;8.296;2022-07-23T05:11:26;17.00;;;15.23;;
13985;SDS011;7067;51.832;8.296;2022-07-23T05:13:52;16.70;;;15.15;;
13985;SDS011;7067;51.832;8.296;2022-07-23T05:16:17;16.15;;;13.73;;
13985;SDS011;7067;51.832;8.296;2022-07-23T05:18:42;19.13;;;13.70;;
13985;SDS011;7067;51.832;8.296;2022-07-23T05:21:08;16.30;;;14.45;;
13985;SDS011;7067;51.832;8.296;2022-07-23T05:23:33;16.17;;;13.82;;
13985;SDS011;7067;51.832;8.296;2022-07-23T05:25:59;14.32;;;12.90;;
13985;SDS011;7067;51.832;8.296;2022-07-23T05:28:24;16.05;;;13.48;;
13985;SDS011;7067;51.832;8.296;2022-07-23T05:30:50;16.08;;;12.40;;
13985;SDS011;7067;51.832;8.296;2022-07-23T05:33:16;15.13;;;13.73;;
13985;SDS011;7067;51.832;8.296;2022-07-23T05:35:43;14.55;;;12.93;;
13985;SDS011;7067;51.832;8.296;2022-07-23T05:38:09;14.50;;;13.00;;
13985;SDS011;7067;51.832;8.296;2022-07-23T05:40:34;17.23;;;12.18;;
13985;SDS011;7067;51.832;8.296;2022-07-23T05:43:00;13.23;;;11.77;;
13985;SDS011;7067;51.832;8.296;2022-07-23T05:45:25;13.68;;;11.75;;
13985;SDS011;7067;51.832;8.296;2022-07-23T05:47:50;13.35;;;12.02;;
13985;SDS011;7067;51.832;8.296;2022-07-23T05:50:16;14.13;;;11.13;;
13985;SDS011;7067;51.832;8.296;2022-07-23T05:52:42;13.27;;;11.98;;
13985;SDS011;7067;51.832;8.296;2022-07-23T05:55:08;15.55;;;11.27;;
13985;SDS011;7067;51.832;8.296;2022-07-23T05:57:37;15.40;;;11.23;;
13985;SDS011;7067;51.832;8.296;2022-07-23T06:00:04;14.85;;;11.25;;
13985;SDS011;7067;51.832;8.296;2022-07-23T06:02:30;11.63;;;10.45;;
13985;SDS011;7067;51.832;8.296;2022-07-23T06:04:55;11.18;;;9.98;;
13985;SDS011;7067;51.832;8.296;2022-07-23T06:07:21;12.23;;;11.00;;
13985;SDS011;7067;51.832;8.296;2022-07-23T06:09:46;11.82;;;10.45;;
13985;SDS011;7067;51.832;8.296;2022-07-23T06:12:14;11.65;;;10.43;;
13985;SDS011;7067;51.832;8.296;2022-07-23T06:14:39;12.88;;;11.57;;
13985;SDS011;7067;51.832;8.296;2022-07-23T06:17:05;15.13;;;10.40;;
13985;SDS011;7067;51.832;8.296;2022-07-23T06:19:30;10.93;;;9.02;;
13985;SDS011;7067;51.832;8.296;2022-07-23T06:21:55;11.45;;;9.73;;
13985;SDS011;7067;51.832;8.296;2022-07-23T06:24:21;9.77;;;8.75;;
13985;SDS011;7067;51.832;8.296;2022-07-23T06:26:46;9.48;;;8.48;;
13985;SDS011;7067;51.832;8.296;2022-07-23T06:29:12;10.63;;;8.23;;
13985;SDS011;7067;51.832;8.296;2022-07-23T06:31:37;10.88;;;8.02;;
13985;SDS011;7067;51.832;8.296;2022-07-23T06:34:02;11.57;;;8.50;;
13985;SDS011;7067;51.832;8.296;2022-07-23T06:36:28;10.98;;;7.97;;
13985;SDS011;7067;51.832;8.296;2022-07-23T06:38:53;11.38;;;7.75;;
13985;SDS011;7067;51.832;8.296;2022-07-23T06:41:18;9.82;;;7.55;;
13985;SDS011;7067;51.832;8.296;2022-07-23T06:43:44;8.02;;;7.28;;
13985;SDS011;7067;51.832;8.296;2022-07-23T06:46:09;10.10;;;7.90;;
13985;SDS011;7067;51.832;8.296;2022-07-23T06:48:35;9.55;;;7.28;;
13985;SDS011;7067;51.832;8.296;2022-07-23T06:51:01;8.73;;;7.28;;
13985;SDS011;7067;51.832;8.296;2022-07-23T06:53:26;8.70;;;6.68;;
13985;SDS011;7067;51.832;8.296;2022-07-23T06:55:52;10.50;;;7.20;;
13985;SDS011;7067;51.832;8.296;2022-07-23T06:58:17;8.75;;;6.97;;
13985;SDS011;7067;51.832;8.296;2022-07-23T07:00:44;8.18;;;7.05;;
13985;SDS011;7067;51.832;8.296;2022-07-23T07:03:09;6.68;;;5.63;;
13985;SDS011;7067;51.832;8.296;2022-07-23T07:05:35;8.48;;;6.80;;
13985;SDS011;7067;51.832;8.296;2022-07-23T07:08:00;12.40;;;7.00;;
13985;SDS011;7067;51.832;8.296;2022-07-23T07:10:25;9.35;;;7.53;;
13985;SDS011;7067;51.832;8.296;2022-07-23T07:12:51;11.40;;;8.02;;
13985;SDS011;7067;51.832;8.296;2022-07-23T07:15:16;11.93;;;7.20;;
13985;SDS011;7067;51.832;8.296;2022-07-23T07:17:42;9.13;;;8.15;;
13985;SDS011;7067;51.832;8.296;2022-07-23T07:20:07;9.25;;;7.68;;
13985;SDS011;7067;51.832;8.296;2022-07-23T07:22:33;9.90;;;8.00;;
13985;SDS011;7067;51.832;8.296;2022-07-23T07:24:59;8.75;;;7.45;;
13985;SDS011;7067;51.832;8.296;2022-07-23T07:27:24;8.45;;;7.43;;
13985;SDS011;7067;51.832;8.296;2022-07-23T07:29:49;9.73;;;8.73;;
13985;SDS011;7067;51.832;8.296;2022-07-23T07:32:15;15.55;;;7.78;;
13985;SDS011;7067;51.832;8.296;2022-07-23T07:34:40;14.68;;;8.25;;
13985;SDS011;7067;51.832;8.296;2022-07-23T07:37:05;10.65;;;9.00;;
13985;SDS011;7067;51.832;8.296;2022-07-23T07:39:31;8.70;;;7.93;;
13985;SDS011;7067;51.832;8.296;2022-07-23T07:41:56;13.85;;;8.50;;
13985;SDS011;7067;51.832;8.296;2022-07-23T07:44:21;8.40;;;7.60;;
13985;SDS011;7067;51.832;8.296;2022-07-23T07:46:47;11.68;;;8.52;;
13985;SDS011;7067;51.832;8.296;2022-07-23T07:49:12;12.65;;;7.63;;
13985;SDS011;7067;51.832;8.296;2022-07-23T07:51:37;9.90;;;7.43;;
13985;SDS011;7067;51.832;8.296;2022-07-23T07:54:03;10.48;;;7.97;;
13985;SDS011;7067;51.832;8.296;2022-07-23T07:56:28;8.95;;;7.97;;
13985;SDS011;7067;51.832;8.296;2022-07-23T07:58:54;9.93;;;7.05;;
13985;SDS011;7067;51.832;8.296;2022-07-23T08:01:19;8.80;;;7.75;;
13985;SDS011;7067;51.832;8.296;2022-07-23T08:03:45;12.10;;;8.60;;
13985;SDS011;7067;51.832;8.296;2022-07-23T08:06:10;9.65;;;8.65;;
13985;SDS011;7067;51.832;8.296;2022-07-23T08:08:36;10.02;;;7.28;;
13985;SDS011;7067;51.832;8.296;2022-07-23T08:11:01;9.98;;;8.50;;
13985;SDS011;7067;51.832;8.296;2022-07-23T08:13:26;10.30;;;8.13;;
13985;SDS011;7067;51.832;8.296;2022-07-23T08:15:52;12.50;;;8.05;;
13985;SDS011;7067;51.832;8.296;2022-07-23T08:18:18;11.32;;;6.55;;
13985;SDS011;7067;51.832;8.296;2022-07-23T08:20:44;6.80;;;6.18;;
13985;SDS011;7067;51.832;8.296;2022-07-23T08:23:09;9.32;;;7.28;;
13985;SDS011;7067;51.832;8.296;2022-07-23T08:25:36;8.52;;;7.53;;
13985;SDS011;7067;51.832;8.296;2022-07-23T08:28:03;8.30;;;7.40;;
13985;SDS011;7067;51.832;8.296;2022-07-23T08:30:32;8.13;;;7.07;;
13985;SDS011;7067;51.832;8.296;2022-07-23T08:33:02;9.90;;;7.13;;
13985;SDS011;7067;51.832;8.296;2022-07-23T08:35:31;9.40;;;7.47;;
13985;SDS011;7067;51.832;8.296;2022-07-23T08:38:04;7.13;;;6.43;;
13985;SDS011;7067;51.832;8.296;2022-07-23T08:40:32;10.27;;;6.63;;
13985;SDS011;7067;51.832;8.296;2022-07-23T08:42:58;6.30;;;5.75;;
13985;SDS011;7067;51.832;8.296;2022-07-23T08:45:25;7.68;;;6.00;;
13985;SDS011;7067;51.832;8.296;2022-07-23T08:47:51;6.90;;;5.70;;
13985;SDS011;7067;51.832;8.296;2022-07-23T08:50:18;9.32;;;6.10;;
13985;SDS011;7067;51.832;8.296;2022-07-23T08:52:43;6.65;;;5.97;;
13985;SDS011;7067;51.832;8.296;2022-07-23T08:55:09;6.95;;;5.07;;
13985;SDS011;7067;51.832;8.296;2022-07-23T08:57:35;6.78;;;5.82;;
13985;SDS011;7067;51.832;8.296;2022-07-23T09:00:00;9.30;;;5.70;;
13985;SDS011;7067;51.832;8.296;2022-07-23T09:02:26;6.07;;;4.78;;
13985;SDS011;7067;51.832;8.296;2022-07-23T09:04:51;5.22;;;4.75;;
13985;SDS011;7067;51.832;8.296;2022-07-23T09:07:17;5.60;;;4.78;;
13985;SDS011;7067;51.832;8.296;2022-07-23T09:09:42;7.78;;;4.78;;
13985;SDS011;7067;51.832;8.296;2022-07-23T09:12:08;6.30;;;4.63;;
13985;SDS011;7067;51.832;8.296;2022-07-23T09:14:38;7.63;;;4.85;;
13985;SDS011;7067;51.832;8.296;2022-07-23T09:17:11;9.38;;;4.78;;
13985;SDS011;7067;51.832;8.296;2022-07-23T09:19:37;7.03;;;4.03;;
13985;SDS011;7067;51.832;8.296;2022-07-23T09:22:18;4.55;;;3.83;;
13985;SDS011;7067;51.832;8.296;2022-07-23T09:27:51;7.25;;;4.97;;
13985;SDS011;7067;51.832;8.296;2022-07-23T09:30:21;4.25;;;3.40;;
13985;SDS011;7067;51.832;8.296;2022-07-23T09:35:43;4.28;;;3.42;;
13985;SDS011;7067;51.832;8.296;2022-07-23T09:38:09;8.75;;;3.60;;
13985;SDS011;7067;51.832;8.296;2022-07-23T09:40:34;6.97;;;3.90;;
13985;SDS011;7067;51.832;8.296;2022-07-23T09:43:00;7.32;;;4.03;;
13985;SDS011;7067;51.832;8.296;2022-07-23T09:45:25;11.40;;;3.63;;
13985;SDS011;7067;51.832;8.296;2022-07-23T09:47:50;4.35;;;2.92;;
13985;SDS011;7067;51.832;8.296;2022-07-23T09:50:16;6.10;;;3.13;;
13985;SDS011;7067;51.832;8.296;2022-07-23T09:52:45;12.98;;;4.43;;
13985;SDS011;7067;51.832;8.296;2022-07-23T09:55:13;7.07;;;4.72;;
13985;SDS011;7067;51.832;8.296;2022-07-23T09:57:40;12.00;;;4.78;;
13985;SDS011;7067;51.832;8.296;2022-07-23T10:00:06;5.20;;;3.38;;
13985;SDS011;7067;51.832;8.296;2022-07-23T10:05:01;2.63;;;2.20;;
13985;SDS011;7067;51.832;8.296;2022-07-23T10:07:27;4.32;;;2.60;;
13985;SDS011;7067;51.832;8.296;2022-07-23T10:09:58;4.22;;;2.53;;
13985;SDS011;7067;51.832;8.296;2022-07-23T10:12:24;4.72;;;2.72;;
13985;SDS011;7067;51.832;8.296;2022-07-23T10:14:52;3.20;;;2.90;;
13985;SDS011;7067;51.832;8.296;2022-07-23T10:17:17;6.75;;;3.00;;
13985;SDS011;7067;51.832;8.296;2022-07-23T10:19:43;3.83;;;2.65;;
13985;SDS011;7067;51.832;8.296;2022-07-23T10:24:55;3.22;;;2.33;;
13985;SDS011;7067;51.832;8.296;2022-07-23T10:35:50;2.78;;;2.40;;
13985;SDS011;7067;51.832;8.296;2022-07-23T10:43:32;3.33;;;2.38;;
13985;SDS011;7067;51.832;8.296;2022-07-23T10:48:46;4.53;;;2.65;;
13985;SDS011;7067;51.832;8.296;2022-07-23T10:54:46;2.35;;;2.15;;
13985;SDS011;7067;51.832;8.296;2022-07-23T10:57:12;4.13;;;2.47;;
13985;SDS011;7067;51.832;8.296;2022-07-23T11:02:25;3.25;;;1.92;;
13985;SDS011;7067;51.832;8.296;2022-07-23T11:04:53;2.45;;;1.98;;
13985;SDS011;7067;51.832;8.296;2022-07-23T11:07:19;4.22;;;2.50;;
13985;SDS011;7067;51.832;8.296;2022-07-23T11:09:44;3.58;;;2.65;;
13985;SDS011;7067;51.832;8.296;2022-07-23T11:17:30;4.40;;;2.35;;
13985;SDS011;7067;51.832;8.296;2022-07-23T11:25:08;2.63;;;2.13;;
13985;SDS011;7067;51.832;8.296;2022-07-23T11:30:03;5.93;;;2.75;;
13985;SDS011;7067;51.832;8.296;2022-07-23T11:32:29;5.78;;;3.35;;
13985;SDS011;7067;51.832;8.296;2022-07-23T11:34:58;4.60;;;2.83;;
13985;SDS011;7067;51.832;8.296;2022-07-23T11:37:28;3.25;;;2.58;;
13985;SDS011;7067;51.832;8.296;2022-07-23T11:40:13;2.53;;;2.30;;
13985;SDS011;7067;51.832;8.296;2022-07-23T11:42:51;3.20;;;2.88;;
13985;SDS011;7067;51.832;8.296;2022-07-23T11:45:20;5.47;;;3.03;;
13985;SDS011;7067;51.832;8.296;2022-07-23T11:47:46;6.47;;;3.10;;
13985;SDS011;7067;51.832;8.296;2022-07-23T11:50:12;4.00;;;2.25;;
13985;SDS011;7067;51.832;8.296;2022-07-23T11:52:38;1.85;;;1.75;;
13985;SDS011;7067;51.832;8.296;2022-07-23T11:55:04;3.42;;;2.45;;
13985;SDS011;7067;51.832;8.296;2022-07-23T11:57:33;3.05;;;2.28;;
13985;SDS011;7067;51.832;8.296;2022-07-23T12:02:31;4.70;;;2.40;;
13985;SDS011;7067;51.832;8.296;2022-07-23T12:04:57;3.13;;;2.03;;
13985;SDS011;7067;51.832;8.296;2022-07-23T12:07:33;2.63;;;1.77;;
13985;SDS011;7067;51.832;8.296;2022-07-23T12:12:27;2.83;;;2.47;;
13985;SDS011;7067;51.832;8.296;2022-07-23T12:15:00;5.22;;;2.00;;
13985;SDS011;7067;51.832;8.296;2022-07-23T12:17:29;4.35;;;2.58;;
13985;SDS011;7067;51.832;8.296;2022-07-23T12:19:57;2.35;;;2.10;;
13985;SDS011;7067;51.832;8.296;2022-07-23T12:22:23;2.58;;;2.33;;
13985;SDS011;7067;51.832;8.296;2022-07-23T12:24:57;2.33;;;2.13;;
13985;SDS011;7067;51.832;8.296;2022-07-23T12:27:23;2.40;;;2.15;;
13985;SDS011;7067;51.832;8.296;2022-07-23T12:29:49;2.50;;;1.77;;
13985;SDS011;7067;51.832;8.296;2022-07-23T12:32:21;3.10;;;1.70;;
13985;SDS011;7067;51.832;8.296;2022-07-23T12:34:49;2.33;;;1.20;;
13985;SDS011;7067;51.832;8.296;2022-07-23T12:37:28;1.83;;;1.73;;
13985;SDS011;7067;51.832;8.296;2022-07-23T12:39:59;1.60;;;1.50;;
13985;SDS011;7067;51.832;8.296;2022-07-23T12:42:44;1.55;;;1.45;;
13985;SDS011;7067;51.832;8.296;2022-07-23T12:45:10;2.35;;;1.00;;
13985;SDS011;7067;51.832;8.296;2022-07-23T12:53:08;3.83;;;1.08;;
13985;SDS011;7067;51.832;8.296;2022-07-23T12:55:37;2.08;;;1.17;;
13985;SDS011;7067;51.832;8.296;2022-07-23T12:58:16;1.83;;;1.10;;
13985;SDS011;7067;51.832;8.296;2022-07-23T13:00:53;1.90;;;1.45;;
13985;SDS011;7067;51.832;8.296;2022-07-23T13:03:21;1.48;;;0.93;;
13985;SDS011;7067;51.832;8.296;2022-07-23T13:05:57;2.33;;;0.85;;
13985;SDS011;7067;51.832;8.296;2022-07-23T13:08:24;1.55;;;1.45;;
13985;SDS011;7067;51.832;8.296;2022-07-23T13:10:50;1.88;;;0.85;;
13985;SDS011;7067;51.832;8.296;2022-07-23T13:13:17;1.33;;;1.02;;
13985;SDS011;7067;51.832;8.296;2022-07-23T13:15:45;3.08;;;1.42;;
13985;SDS011;7067;51.832;8.296;2022-07-23T13:18:11;2.70;;;0.80;;
13985;SDS011;7067;51.832;8.296;2022-07-23T13:20:36;3.47;;;0.85;;
13985;SDS011;7067;51.832;8.296;2022-07-23T13:23:03;3.63;;;0.80;;
13985;SDS011;7067;51.832;8.296;2022-07-23T13:25:30;1.23;;;0.90;;
13985;SDS011;7067;51.832;8.296;2022-07-23T13:27:55;1.52;;;0.68;;
13985;SDS011;7067;51.832;8.296;2022-07-23T13:30:20;2.45;;;1.15;;
13985;SDS011;7067;51.832;8.296;2022-07-23T13:32:47;1.20;;;0.90;;
13985;SDS011;7067;51.832;8.296;2022-07-23T13:35:12;1.55;;;0.95;;
13985;SDS011;7067;51.832;8.296;2022-07-23T13:37:38;1.08;;;0.88;;
13985;SDS011;7067;51.832;8.296;2022-07-23T13:40:03;2.03;;;1.20;;
13985;SDS011;7067;51.832;8.296;2022-07-23T13:42:29;2.88;;;0.90;;
13985;SDS011;7067;51.832;8.296;2022-07-23T13:44:55;1.67;;;0.93;;
13985;SDS011;7067;51.832;8.296;2022-07-23T13:47:20;3.05;;;0.98;;
13985;SDS011;7067;51.832;8.296;2022-07-23T13:49:45;1.35;;;0.80;;
13985;SDS011;7067;51.832;8.296;2022-07-23T13:52:11;0.93;;;0.93;;
13985;SDS011;7067;51.832;8.296;2022-07-23T13:54:36;2.38;;;0.77;;
13985;SDS011;7067;51.832;8.296;2022-07-23T13:57:01;1.75;;;0.70;;
13985;SDS011;7067;51.832;8.296;2022-07-23T13:59:27;4.78;;;1.10;;
13985;SDS011;7067;51.832;8.296;2022-07-23T14:01:53;2.88;;;0.70;;
13985;SDS011;7067;51.832;8.296;2022-07-23T14:04:18;2.28;;;1.00;;
13985;SDS011;7067;51.832;8.296;2022-07-23T14:06:44;0.70;;;0.70;;
13985;SDS011;7067;51.832;8.296;2022-07-23T14:09:09;7.78;;;1.00;;
13985;SDS011;7067;51.832;8.296;2022-07-23T14:11:35;1.77;;;0.80;;
13985;SDS011;7067;51.832;8.296;2022-07-23T14:14:00;0.70;;;0.70;;
13985;SDS011;7067;51.832;8.296;2022-07-23T14:16:26;2.88;;;0.90;;
13985;SDS011;7067;51.832;8.296;2022-07-23T14:18:51;0.77;;;0.55;;
13985;SDS011;7067;51.832;8.296;2022-07-23T14:21:16;1.67;;;0.73;;
13985;SDS011;7067;51.832;8.296;2022-07-23T14:23:42;1.65;;;0.70;;
13985;SDS011;7067;51.832;8.296;2022-07-23T14:26:07;2.97;;;1.17;;
13985;SDS011;7067;51.832;8.296;2022-07-23T14:28:33;2.05;;;0.73;;
13985;SDS011;7067;51.832;8.296;2022-07-23T14:30:59;4.22;;;0.95;;
13985;SDS011;7067;51.832;8.296;2022-07-23T14:33:24;2.60;;;0.73;;
13985;SDS011;7067;51.832;8.296;2022-07-23T14:35:49;2.85;;;0.77;;
13985;SDS011;7067;51.832;8.296;2022-07-23T14:38:15;2.03;;;1.05;;
13985;SDS011;7067;51.832;8.296;2022-07-23T14:40:41;2.47;;;0.77;;
13985;SDS011;7067;51.832;8.296;2022-07-23T14:43:06;2.65;;;0.77;;
13985;SDS011;7067;51.832;8.296;2022-07-23T14:45:32;3.95;;;0.95;;
13985;SDS011;7067;51.832;8.296;2022-07-23T14:47:57;4.10;;;1.92;;
13985;SDS011;7067;51.832;8.296;2022-07-23T14:50:23;1.27;;;1.10;;
13985;SDS011;7067;51.832;8.296;2022-07-23T14:52:49;2.83;;;1.00;;
13985;SDS011;7067;51.832;8.296;2022-07-23T14:55:14;2.72;;;1.10;;
13985;SDS011;7067;51.832;8.296;2022-07-23T14:57:42;2.45;;;1.02;;
13985;SDS011;7067;51.832;8.296;2022-07-23T15:00:07;1.77;;;1.08;;
13985;SDS011;7067;51.832;8.296;2022-07-23T15:02:33;4.65;;;0.98;;
13985;SDS011;7067;51.832;8.296;2022-07-23T15:04:59;1.35;;;1.00;;
13985;SDS011;7067;51.832;8.296;2022-07-23T15:07:26;4.68;;;1.15;;
13985;SDS011;7067;51.832;8.296;2022-07-23T15:09:52;2.13;;;0.82;;
13985;SDS011;7067;51.832;8.296;2022-07-23T15:12:17;1.02;;;0.70;;
13985;SDS011;7067;51.832;8.296;2022-07-23T15:14:43;1.45;;;0.90;;
13985;SDS011;7067;51.832;8.296;2022-07-23T15:17:08;1.05;;;0.60;;
13985;SDS011;7067;51.832;8.296;2022-07-23T15:19:34;1.77;;;1.67;;
13985;SDS011;7067;51.832;8.296;2022-07-23T15:21:59;2.78;;;0.98;;
13985;SDS011;7067;51.832;8.296;2022-07-23T15:24:24;1.15;;;0.85;;
13985;SDS011;7067;51.832;8.296;2022-07-23T15:26:50;2.35;;;0.95;;
13985;SDS011;7067;51.832;8.296;2022-07-23T15:29:15;1.77;;;0.90;;
13985;SDS011;7067;51.832;8.296;2022-07-23T15:31:41;0.88;;;0.80;;
13985;SDS011;7067;51.832;8.296;2022-07-23T15:34:06;1.63;;;0.80;;
13985;SDS011;7067;51.832;8.296;2022-07-23T15:36:31;3.33;;;0.80;;
13985;SDS011;7067;51.832;8.296;2022-07-23T15:38:57;1.67;;;0.70;;
13985;SDS011;7067;51.832;8.296;2022-07-23T15:41:22;2.42;;;1.10;;